sensor_id;sensor_type;location;lat;lon;timestamp;P1;durP1;ratioP1;P2;durP2;ratioP2
36001;SDS011;22070;50.922;5.430;2022-09-28T00:01:46;6.97;;;3.97;;
36001;SDS011;22070;50.922;5.430;2022-09-28T00:04:11;7.85;;;3.42;;
36001;SDS011;22070;50.922;5.430;2022-09-28T00:06:37;9.30;;;4.85;;
36001;SDS011;22070;50.922;5.430;2022-09-28T00:09:03;10.55;;;4.43;;
36001;SDS011;22070;50.922;5.430;2022-09-28T00:11:29;7.10;;;4.22;;
36001;SDS011;22070;50.922;5.430;2022-09-28T00:13:56;6.95;;;4.38;;
36001;SDS011;22070;50.922;5.430;2022-09-28T00:16:27;8.60;;;4.47;;
36001;SDS011;22070;50.922;5.430;2022-09-28T00:18:57;7.53;;;4.47;;
36001;SDS011;22070;50.922;5.430;2022-09-28T00:21:25;6.97;;;4.35;;
36001;SDS011;22070;50.922;5.430;2022-09-28T00:23:52;9.27;;;4.18;;
36001;SDS011;22070;50.922;5.430;2022-09-28T00:26:39;10.35;;;5.07;;
36001;SDS011;22070;50.922;5.430;2022-09-28T00:29:22;12.30;;;5.20;;
36001;SDS011;22070;50.922;5.430;2022-09-28T00:31:51;9.05;;;5.28;;
36001;SDS011;22070;50.922;5.430;2022-09-28T00:34:21;13.55;;;5.38;;
36001;SDS011;22070;50.922;5.430;2022-09-28T00:36:46;12.55;;;5.80;;
36001;SDS011;22070;50.922;5.430;2022-09-28T00:39:13;11.95;;;6.85;;
36001;SDS011;22070;50.922;5.430;2022-09-28T00:41:39;10.25;;;5.82;;
36001;SDS011;22070;50.922;5.430;2022-09-28T00:46:51;14.05;;;6.65;;
36001;SDS011;22070;50.922;5.430;2022-09-28T00:49:21;12.68;;;6.93;;
36001;SDS011;22070;50.922;5.430;2022-09-28T00:52:13;13.35;;;7.30;;
36001;SDS011;22070;50.922;5.430;2022-09-28T00:54:44;9.52;;;6.43;;
36001;SDS011;22070;50.922;5.430;2022-09-28T00:59:36;17.07;;;8.73;;
36001;SDS011;22070;50.922;5.430;2022-09-28T01:02:02;12.07;;;6.50;;
36001;SDS011;22070;50.922;5.430;2022-09-28T01:04:28;10.98;;;6.53;;
36001;SDS011;22070;50.922;5.430;2022-09-28T01:06:55;13.98;;;7.85;;
36001;SDS011;22070;50.922;5.430;2022-09-28T01:11:49;12.02;;;6.78;;
36001;SDS011;22070;50.922;5.430;2022-09-28T01:14:14;14.73;;;7.70;;
36001;SDS011;22070;50.922;5.430;2022-09-28T01:24:46;11.88;;;7.03;;
36001;SDS011;22070;50.922;5.430;2022-09-28T01:30:18;11.60;;;6.35;;
36001;SDS011;22070;50.922;5.430;2022-09-28T01:32:49;12.82;;;6.95;;
36001;SDS011;22070;50.922;5.430;2022-09-28T01:38:12;11.70;;;6.55;;
36001;SDS011;22070;50.922;5.430;2022-09-28T01:40:42;10.65;;;7.30;;
36001;SDS011;22070;50.922;5.430;2022-09-28T01:43:13;13.73;;;6.97;;
36001;SDS011;22070;50.922;5.430;2022-09-28T01:45:47;12.07;;;6.25;;
36001;SDS011;22070;50.922;5.430;2022-09-28T01:48:34;10.63;;;5.30;;
36001;SDS011;22070;50.922;5.430;2022-09-28T01:51:06;16.70;;;6.80;;
36001;SDS011;22070;50.922;5.430;2022-09-28T01:53:36;11.35;;;5.68;;
36001;SDS011;22070;50.922;5.430;2022-09-28T01:56:09;12.38;;;6.30;;
36001;SDS011;22070;50.922;5.430;2022-09-28T01:58:42;9.57;;;5.85;;
36001;SDS011;22070;50.922;5.430;2022-09-28T02:01:17;11.80;;;6.03;;
36001;SDS011;22070;50.922;5.430;2022-09-28T02:03:48;10.05;;;5.68;;
36001;SDS011;22070;50.922;5.430;2022-09-28T02:06:25;11.70;;;5.32;;
36001;SDS011;22070;50.922;5.430;2022-09-28T02:08:59;10.68;;;5.47;;
36001;SDS011;22070;50.922;5.430;2022-09-28T02:11:29;9.55;;;5.63;;
36001;SDS011;22070;50.922;5.430;2022-09-28T02:14:02;10.00;;;5.85;;
36001;SDS011;22070;50.922;5.430;2022-09-28T02:19:07;10.32;;;5.88;;
36001;SDS011;22070;50.922;5.430;2022-09-28T02:21:47;9.35;;;6.10;;
36001;SDS011;22070;50.922;5.430;2022-09-28T02:24:38;8.40;;;5.82;;
36001;SDS011;22070;50.922;5.430;2022-09-28T02:27:11;11.40;;;5.40;;
36001;SDS011;22070;50.922;5.430;2022-09-28T02:29:40;10.23;;;5.47;;
36001;SDS011;22070;50.922;5.430;2022-09-28T02:32:06;10.93;;;5.88;;
36001;SDS011;22070;50.922;5.430;2022-09-28T02:34:31;13.90;;;6.38;;
36001;SDS011;22070;50.922;5.430;2022-09-28T02:36:57;12.18;;;6.57;;
36001;SDS011;22070;50.922;5.430;2022-09-28T02:39:24;11.65;;;7.35;;
36001;SDS011;22070;50.922;5.430;2022-09-28T02:41:54;8.85;;;6.13;;
36001;SDS011;22070;50.922;5.430;2022-09-28T02:55:19;12.27;;;6.22;;
36001;SDS011;22070;50.922;5.430;2022-09-28T03:00:37;11.25;;;7.03;;
36001;SDS011;22070;50.922;5.430;2022-09-28T03:05:56;11.05;;;6.78;;
36001;SDS011;22070;50.922;5.430;2022-09-28T03:08:37;8.68;;;5.88;;
36001;SDS011;22070;50.922;5.430;2022-09-28T03:11:11;11.63;;;6.35;;
36001;SDS011;22070;50.922;5.430;2022-09-28T03:13:46;14.20;;;6.38;;
36001;SDS011;22070;50.922;5.430;2022-09-28T03:16:13;8.75;;;5.68;;
36001;SDS011;22070;50.922;5.430;2022-09-28T03:18:41;7.60;;;4.97;;
36001;SDS011;22070;50.922;5.430;2022-09-28T03:21:07;9.57;;;5.43;;
36001;SDS011;22070;50.922;5.430;2022-09-28T03:23:35;10.98;;;4.93;;
36001;SDS011;22070;50.922;5.430;2022-09-28T03:26:00;7.95;;;5.40;;
36001;SDS011;22070;50.922;5.430;2022-09-28T03:28:26;5.60;;;4.25;;
36001;SDS011;22070;50.922;5.430;2022-09-28T03:30:52;7.43;;;3.78;;
36001;SDS011;22070;50.922;5.430;2022-09-28T03:33:18;6.93;;;3.72;;
36001;SDS011;22070;50.922;5.430;2022-09-28T03:35:48;10.67;;;5.10;;
36001;SDS011;22070;50.922;5.430;2022-09-28T03:38:15;6.25;;;4.82;;
36001;SDS011;22070;50.922;5.430;2022-09-28T03:40:42;7.82;;;5.03;;
36001;SDS011;22070;50.922;5.430;2022-09-28T03:43:08;10.27;;;6.28;;
36001;SDS011;22070;50.922;5.430;2022-09-28T03:45:33;6.28;;;4.50;;
36001;SDS011;22070;50.922;5.430;2022-09-28T03:47:59;10.13;;;5.57;;
36001;SDS011;22070;50.922;5.430;2022-09-28T03:50:25;12.50;;;6.65;;
36001;SDS011;22070;50.922;5.430;2022-09-28T03:52:51;13.18;;;6.07;;
36001;SDS011;22070;50.922;5.430;2022-09-28T03:55:16;11.27;;;6.93;;
36001;SDS011;22070;50.922;5.430;2022-09-28T03:57:42;11.98;;;7.07;;
36001;SDS011;22070;50.922;5.430;2022-09-28T04:00:08;11.55;;;6.80;;
36001;SDS011;22070;50.922;5.430;2022-09-28T04:02:34;10.90;;;7.10;;
36001;SDS011;22070;50.922;5.430;2022-09-28T04:04:59;14.93;;;7.75;;
36001;SDS011;22070;50.922;5.430;2022-09-28T04:07:25;13.15;;;8.70;;
36001;SDS011;22070;50.922;5.430;2022-09-28T04:09:51;15.98;;;9.15;;
36001;SDS011;22070;50.922;5.430;2022-09-28T04:12:16;15.70;;;9.52;;
36001;SDS011;22070;50.922;5.430;2022-09-28T04:14:42;16.75;;;8.75;;
36001;SDS011;22070;50.922;5.430;2022-09-28T04:17:08;16.15;;;8.07;;
36001;SDS011;22070;50.922;5.430;2022-09-28T04:19:33;16.30;;;9.70;;
36001;SDS011;22070;50.922;5.430;2022-09-28T04:21:59;14.77;;;9.77;;
36001;SDS011;22070;50.922;5.430;2022-09-28T04:24:25;18.90;;;9.85;;
36001;SDS011;22070;50.922;5.430;2022-09-28T04:26:51;16.00;;;10.15;;
36001;SDS011;22070;50.922;5.430;2022-09-28T04:29:37;13.73;;;7.27;;
36001;SDS011;22070;50.922;5.430;2022-09-28T04:32:03;19.52;;;9.95;;
36001;SDS011;22070;50.922;5.430;2022-09-28T04:34:29;19.63;;;10.88;;
36001;SDS011;22070;50.922;5.430;2022-09-28T04:36:55;22.08;;;9.60;;
36001;SDS011;22070;50.922;5.430;2022-09-28T04:39:21;17.88;;;9.45;;
36001;SDS011;22070;50.922;5.430;2022-09-28T04:41:47;16.73;;;9.88;;
36001;SDS011;22070;50.922;5.430;2022-09-28T04:44:12;21.90;;;10.17;;
36001;SDS011;22070;50.922;5.430;2022-09-28T04:46:38;15.85;;;9.30;;
36001;SDS011;22070;50.922;5.430;2022-09-28T04:49:04;17.13;;;9.30;;
36001;SDS011;22070;50.922;5.430;2022-09-28T04:51:30;15.20;;;8.15;;
36001;SDS011;22070;50.922;5.430;2022-09-28T04:53:56;14.23;;;9.00;;
36001;SDS011;22070;50.922;5.430;2022-09-28T04:56:22;17.55;;;9.10;;
36001;SDS011;22070;50.922;5.430;2022-09-28T04:58:47;15.73;;;8.88;;
36001;SDS011;22070;50.922;5.430;2022-09-28T05:01:14;16.42;;;8.80;;
36001;SDS011;22070;50.922;5.430;2022-09-28T05:03:42;15.38;;;9.10;;
36001;SDS011;22070;50.922;5.430;2022-09-28T05:06:08;14.90;;;9.65;;
36001;SDS011;22070;50.922;5.430;2022-09-28T05:08:38;15.15;;;9.40;;
36001;SDS011;22070;50.922;5.430;2022-09-28T05:11:05;14.13;;;8.70;;
36001;SDS011;22070;50.922;5.430;2022-09-28T05:13:32;17.05;;;9.48;;
36001;SDS011;22070;50.922;5.430;2022-09-28T05:16:04;17.83;;;9.75;;
36001;SDS011;22070;50.922;5.430;2022-09-28T05:18:30;19.10;;;9.20;;
36001;SDS011;22070;50.922;5.430;2022-09-28T05:20:55;14.32;;;7.15;;
36001;SDS011;22070;50.922;5.430;2022-09-28T05:23:21;15.40;;;9.57;;
36001;SDS011;22070;50.922;5.430;2022-09-28T05:25:47;16.80;;;9.55;;
36001;SDS011;22070;50.922;5.430;2022-09-28T05:28:12;19.48;;;9.65;;
36001;SDS011;22070;50.922;5.430;2022-09-28T05:30:38;19.05;;;10.20;;
36001;SDS011;22070;50.922;5.430;2022-09-28T05:33:04;22.90;;;10.10;;
36001;SDS011;22070;50.922;5.430;2022-09-28T05:35:29;19.20;;;10.18;;
36001;SDS011;22070;50.922;5.430;2022-09-28T05:37:55;19.70;;;10.75;;
36001;SDS011;22070;50.922;5.430;2022-09-28T05:40:26;18.13;;;10.13;;
36001;SDS011;22070;50.922;5.430;2022-09-28T05:42:52;20.05;;;10.98;;
36001;SDS011;22070;50.922;5.430;2022-09-28T05:45:17;19.65;;;10.40;;
36001;SDS011;22070;50.922;5.430;2022-09-28T05:47:43;19.55;;;10.73;;
36001;SDS011;22070;50.922;5.430;2022-09-28T05:52:39;23.40;;;10.30;;
36001;SDS011;22070;50.922;5.430;2022-09-28T05:55:05;21.33;;;10.70;;
36001;SDS011;22070;50.922;5.430;2022-09-28T05:57:31;18.83;;;10.38;;
36001;SDS011;22070;50.922;5.430;2022-09-28T05:59:57;18.75;;;10.45;;
36001;SDS011;22070;50.922;5.430;2022-09-28T06:02:22;20.67;;;10.02;;
36001;SDS011;22070;50.922;5.430;2022-09-28T06:04:48;16.33;;;9.23;;
36001;SDS011;22070;50.922;5.430;2022-09-28T06:07:15;18.30;;;10.80;;
36001;SDS011;22070;50.922;5.430;2022-09-28T06:09:44;14.23;;;8.63;;
36001;SDS011;22070;50.922;5.430;2022-09-28T06:12:10;18.42;;;9.30;;
36001;SDS011;22070;50.922;5.430;2022-09-28T06:14:36;10.10;;;5.97;;
36001;SDS011;22070;50.922;5.430;2022-09-28T06:17:02;15.93;;;9.23;;
36001;SDS011;22070;50.922;5.430;2022-09-28T06:19:28;17.17;;;9.32;;
36001;SDS011;22070;50.922;5.430;2022-09-28T06:21:54;16.65;;;8.68;;
36001;SDS011;22070;50.922;5.430;2022-09-28T06:24:20;13.82;;;7.80;;
36001;SDS011;22070;50.922;5.430;2022-09-28T06:26:45;16.20;;;8.20;;
36001;SDS011;22070;50.922;5.430;2022-09-28T06:29:11;17.63;;;9.38;;
36001;SDS011;22070;50.922;5.430;2022-09-28T06:31:39;16.88;;;7.68;;
36001;SDS011;22070;50.922;5.430;2022-09-28T06:34:04;14.55;;;7.75;;
36001;SDS011;22070;50.922;5.430;2022-09-28T06:36:30;12.85;;;6.88;;
36001;SDS011;22070;50.922;5.430;2022-09-28T06:38:56;13.52;;;7.85;;
36001;SDS011;22070;50.922;5.430;2022-09-28T06:41:21;15.30;;;7.53;;
36001;SDS011;22070;50.922;5.430;2022-09-28T06:43:47;13.90;;;7.22;;
36001;SDS011;22070;50.922;5.430;2022-09-28T06:46:13;15.90;;;6.90;;
36001;SDS011;22070;50.922;5.430;2022-09-28T06:48:39;12.02;;;7.55;;
36001;SDS011;22070;50.922;5.430;2022-09-28T06:51:05;9.95;;;5.00;;
36001;SDS011;22070;50.922;5.430;2022-09-28T06:53:31;10.32;;;6.20;;
36001;SDS011;22070;50.922;5.430;2022-09-28T06:55:56;9.60;;;5.95;;
36001;SDS011;22070;50.922;5.430;2022-09-28T06:58:23;13.35;;;6.10;;
36001;SDS011;22070;50.922;5.430;2022-09-28T07:00:50;10.10;;;5.80;;
36001;SDS011;22070;50.922;5.430;2022-09-28T07:03:17;11.13;;;5.20;;
36001;SDS011;22070;50.922;5.430;2022-09-28T07:05:46;10.48;;;5.63;;
36001;SDS011;22070;50.922;5.430;2022-09-28T07:08:13;11.15;;;5.38;;
36001;SDS011;22070;50.922;5.430;2022-09-28T07:10:47;10.00;;;5.50;;
36001;SDS011;22070;50.922;5.430;2022-09-28T07:13:14;8.27;;;4.85;;
36001;SDS011;22070;50.922;5.430;2022-09-28T07:15:41;11.00;;;5.40;;
36001;SDS011;22070;50.922;5.430;2022-09-28T07:18:07;7.87;;;5.30;;
36001;SDS011;22070;50.922;5.430;2022-09-28T07:20:35;11.02;;;5.70;;
36001;SDS011;22070;50.922;5.430;2022-09-28T07:23:02;7.80;;;4.30;;
36001;SDS011;22070;50.922;5.430;2022-09-28T07:25:29;7.07;;;4.90;;
36001;SDS011;22070;50.922;5.430;2022-09-28T07:28:00;8.93;;;4.82;;
36001;SDS011;22070;50.922;5.430;2022-09-28T07:30:27;8.57;;;4.63;;
36001;SDS011;22070;50.922;5.430;2022-09-28T07:32:56;10.30;;;4.35;;
36001;SDS011;22070;50.922;5.430;2022-09-28T07:35:23;11.68;;;3.95;;
36001;SDS011;22070;50.922;5.430;2022-09-28T07:37:55;13.40;;;4.72;;
36001;SDS011;22070;50.922;5.430;2022-09-28T07:40:26;8.30;;;4.68;;
36001;SDS011;22070;50.922;5.430;2022-09-28T07:43:18;10.07;;;4.68;;
36001;SDS011;22070;50.922;5.430;2022-09-28T07:48:15;10.18;;;5.22;;
36001;SDS011;22070;50.922;5.430;2022-09-28T07:53:18;7.32;;;3.97;;
36001;SDS011;22070;50.922;5.430;2022-09-28T07:55:53;8.65;;;3.75;;
36001;SDS011;22070;50.922;5.430;2022-09-28T08:00:47;7.60;;;3.33;;
36001;SDS011;22070;50.922;5.430;2022-09-28T08:03:14;5.32;;;3.25;;
36001;SDS011;22070;50.922;5.430;2022-09-28T08:05:41;5.93;;;3.80;;
36001;SDS011;22070;50.922;5.430;2022-09-28T08:08:07;7.95;;;3.60;;
36001;SDS011;22070;50.922;5.430;2022-09-28T08:10:33;8.25;;;3.30;;
36001;SDS011;22070;50.922;5.430;2022-09-28T08:12:59;7.47;;;3.28;;
36001;SDS011;22070;50.922;5.430;2022-09-28T08:15:31;6.85;;;3.00;;
36001;SDS011;22070;50.922;5.430;2022-09-28T08:18:05;9.82;;;3.22;;
36001;SDS011;22070;50.922;5.430;2022-09-28T08:20:31;6.47;;;3.30;;
36001;SDS011;22070;50.922;5.430;2022-09-28T08:23:16;4.70;;;3.15;;
36001;SDS011;22070;50.922;5.430;2022-09-28T08:25:46;3.72;;;2.58;;
36001;SDS011;22070;50.922;5.430;2022-09-28T08:28:13;5.80;;;3.20;;
36001;SDS011;22070;50.922;5.430;2022-09-28T08:30:41;8.13;;;3.42;;
36001;SDS011;22070;50.922;5.430;2022-09-28T08:33:09;7.18;;;3.03;;
36001;SDS011;22070;50.922;5.430;2022-09-28T08:35:35;4.18;;;3.17;;
36001;SDS011;22070;50.922;5.430;2022-09-28T08:38:01;6.35;;;3.42;;
36001;SDS011;22070;50.922;5.430;2022-09-28T08:40:27;4.25;;;2.88;;
36001;SDS011;22070;50.922;5.430;2022-09-28T08:42:57;5.28;;;2.63;;
36001;SDS011;22070;50.922;5.430;2022-09-28T08:45:29;7.95;;;3.45;;
36001;SDS011;22070;50.922;5.430;2022-09-28T08:48:01;5.70;;;2.75;;
36001;SDS011;22070;50.922;5.430;2022-09-28T08:51:18;3.88;;;2.60;;
36001;SDS011;22070;50.922;5.430;2022-09-28T08:59:15;9.00;;;2.67;;
36001;SDS011;22070;50.922;5.430;2022-09-28T09:01:51;2.63;;;1.50;;
36001;SDS011;22070;50.922;5.430;2022-09-28T09:04:22;4.55;;;1.90;;
36001;SDS011;22070;50.922;5.430;2022-09-28T09:18:06;0.93;;;0.80;;
36001;SDS011;22070;50.922;5.430;2022-09-28T09:25:57;3.97;;;1.80;;
36001;SDS011;22070;50.922;5.430;2022-09-28T09:47:19;2.22;;;0.95;;
36001;SDS011;22070;50.922;5.430;2022-09-28T09:50:05;2.00;;;1.08;;
36001;SDS011;22070;50.922;5.430;2022-09-28T09:52:52;2.58;;;0.90;;
36001;SDS011;22070;50.922;5.430;2022-09-28T09:58:40;1.52;;;0.70;;
36001;SDS011;22070;50.922;5.430;2022-09-28T10:01:12;3.13;;;0.95;;
36001;SDS011;22070;50.922;5.430;2022-09-28T10:03:41;4.78;;;0.98;;
36001;SDS011;22070;50.922;5.430;2022-09-28T10:06:11;4.60;;;1.00;;
36001;SDS011;22070;50.922;5.430;2022-09-28T10:08:48;3.22;;;1.10;;
36001;SDS011;22070;50.922;5.430;2022-09-28T10:11:26;2.53;;;0.88;;
36001;SDS011;22070;50.922;5.430;2022-09-28T10:14:00;4.63;;;1.00;;
36001;SDS011;22070;50.922;5.430;2022-09-28T10:16:26;1.60;;;0.70;;
36001;SDS011;22070;50.922;5.430;2022-09-28T10:18:51;2.80;;;0.97;;
36001;SDS011;22070;50.922;5.430;2022-09-28T10:21:18;4.22;;;0.82;;
36001;SDS011;22070;50.922;5.430;2022-09-28T10:23:45;2.60;;;0.85;;
36001;SDS011;22070;50.922;5.430;2022-09-28T10:26:19;4.63;;;1.45;;
36001;SDS011;22070;50.922;5.430;2022-09-28T10:28:59;4.35;;;1.95;;
36001;SDS011;22070;50.922;5.430;2022-09-28T10:34:12;3.28;;;0.70;;
36001;SDS011;22070;50.922;5.430;2022-09-28T10:36:55;2.92;;;0.95;;
36001;SDS011;22070;50.922;5.430;2022-09-28T10:39:27;1.67;;;0.55;;
36001;SDS011;22070;50.922;5.430;2022-09-28T10:42:09;4.78;;;0.80;;
36001;SDS011;22070;50.922;5.430;2022-09-28T10:44:58;1.48;;;0.90;;
36001;SDS011;22070;50.922;5.430;2022-09-28T10:47:29;3.97;;;1.00;;
36001;SDS011;22070;50.922;5.430;2022-09-28T10:49:56;4.32;;;0.70;;
36001;SDS011;22070;50.922;5.430;2022-09-28T10:52:28;14.13;;;5.53;;
36001;SDS011;22070;50.922;5.430;2022-09-28T10:54:59;11.07;;;3.07;;
36001;SDS011;22070;50.922;5.430;2022-09-28T10:57:27;4.75;;;1.00;;
36001;SDS011;22070;50.922;5.430;2022-09-28T10:59:57;2.72;;;0.55;;
36001;SDS011;22070;50.922;5.430;2022-09-28T11:04:55;2.22;;;0.95;;
36001;SDS011;22070;50.922;5.430;2022-09-28T11:07:25;3.22;;;0.68;;
36001;SDS011;22070;50.922;5.430;2022-09-28T11:09:52;5.03;;;1.35;;
36001;SDS011;22070;50.922;5.430;2022-09-28T11:12:19;2.22;;;0.77;;
36001;SDS011;22070;50.922;5.430;2022-09-28T11:14:57;2.00;;;0.77;;
36001;SDS011;22070;50.922;5.430;2022-09-28T11:17:31;4.13;;;1.05;;
36001;SDS011;22070;50.922;5.430;2022-09-28T11:19:59;1.77;;;0.63;;
36001;SDS011;22070;50.922;5.430;2022-09-28T11:22:43;3.20;;;0.88;;
36001;SDS011;22070;50.922;5.430;2022-09-28T11:30:33;2.83;;;0.65;;
36001;SDS011;22070;50.922;5.430;2022-09-28T11:33:24;1.58;;;0.60;;
36001;SDS011;22070;50.922;5.430;2022-09-28T11:38:40;3.28;;;0.90;;
36001;SDS011;22070;50.922;5.430;2022-09-28T11:50:03;2.08;;;0.60;;
36001;SDS011;22070;50.922;5.430;2022-09-28T11:52:42;3.55;;;0.70;;
36001;SDS011;22070;50.922;5.430;2022-09-28T11:57:49;3.57;;;0.87;;
36001;SDS011;22070;50.922;5.430;2022-09-28T12:00:45;2.33;;;0.93;;
36001;SDS011;22070;50.922;5.430;2022-09-28T12:06:30;3.00;;;0.90;;
36001;SDS011;22070;50.922;5.430;2022-09-28T12:09:13;1.55;;;0.75;;
36001;SDS011;22070;50.922;5.430;2022-09-28T12:11:47;2.42;;;0.85;;
36001;SDS011;22070;50.922;5.430;2022-09-28T12:14:28;3.15;;;0.95;;
36001;SDS011;22070;50.922;5.430;2022-09-28T12:17:03;3.45;;;0.70;;
36001;SDS011;22070;50.922;5.430;2022-09-28T12:22:24;4.40;;;1.02;;
36001;SDS011;22070;50.922;5.430;2022-09-28T12:24:56;2.58;;;0.90;;
36001;SDS011;22070;50.922;5.430;2022-09-28T12:27:26;7.47;;;0.80;;
36001;SDS011;22070;50.922;5.430;2022-09-28T12:32:33;2.33;;;0.82;;
36001;SDS011;22070;50.922;5.430;2022-09-28T12:35:01;6.72;;;0.90;;
36001;SDS011;22070;50.922;5.430;2022-09-28T12:43:12;3.90;;;0.80;;
36001;SDS011;22070;50.922;5.430;2022-09-28T12:51:58;2.55;;;1.40;;
36001;SDS011;22070;50.922;5.430;2022-09-28T13:09:03;1.67;;;0.55;;
36001;SDS011;22070;50.922;5.430;2022-09-28T13:20:16;2.15;;;0.77;;
36001;SDS011;22070;50.922;5.430;2022-09-28T13:25:28;3.30;;;0.63;;
36001;SDS011;22070;50.922;5.430;2022-09-28T13:30:24;3.28;;;0.73;;
36001;SDS011;22070;50.922;5.430;2022-09-28T13:32:51;4.03;;;0.97;;
36001;SDS011;22070;50.922;5.430;2022-09-28T13:35:20;5.10;;;1.13;;
36001;SDS011;22070;50.922;5.430;2022-09-28T13:37:46;0.85;;;0.70;;
36001;SDS011;22070;50.922;5.430;2022-09-28T13:49:21;4.80;;;0.80;;
36001;SDS011;22070;50.922;5.430;2022-09-28T13:57:45;4.45;;;1.08;;
36001;SDS011;22070;50.922;5.430;2022-09-28T14:00:19;2.38;;;0.70;;
36001;SDS011;22070;50.922;5.430;2022-09-28T14:03:09;2.72;;;0.70;;
36001;SDS011;22070;50.922;5.430;2022-09-28T14:08:38;1.77;;;0.88;;
36001;SDS011;22070;50.922;5.430;2022-09-28T14:16:25;3.90;;;0.67;;
36001;SDS011;22070;50.922;5.430;2022-09-28T14:32:38;2.78;;;0.80;;
36001;SDS011;22070;50.922;5.430;2022-09-28T14:37:51;2.08;;;1.00;;
36001;SDS011;22070;50.922;5.430;2022-09-28T14:43:36;2.70;;;1.15;;
36001;SDS011;22070;50.922;5.430;2022-09-28T14:46:29;7.22;;;3.50;;
36001;SDS011;22070;50.922;5.430;2022-09-28T14:54:38;2.97;;;1.75;;
36001;SDS011;22070;50.922;5.430;2022-09-28T14:57:16;3.85;;;2.67;;
36001;SDS011;22070;50.922;5.430;2022-09-28T14:59:50;5.10;;;2.40;;
36001;SDS011;22070;50.922;5.430;2022-09-28T15:02:18;4.72;;;1.10;;
36001;SDS011;22070;50.922;5.430;2022-09-28T15:07:29;6.90;;;1.33;;
36001;SDS011;22070;50.922;5.430;2022-09-28T15:10:22;3.97;;;1.40;;
36001;SDS011;22070;50.922;5.430;2022-09-28T15:16:05;4.00;;;2.00;;
36001;SDS011;22070;50.922;5.430;2022-09-28T15:21:35;3.55;;;2.60;;
36001;SDS011;22070;50.922;5.430;2022-09-28T15:24:21;5.15;;;2.30;;
36001;SDS011;22070;50.922;5.430;2022-09-28T15:26:47;6.22;;;3.70;;
36001;SDS011;22070;50.922;5.430;2022-09-28T15:29:15;9.02;;;4.15;;
36001;SDS011;22070;50.922;5.430;2022-09-28T15:31:43;5.55;;;2.33;;
36001;SDS011;22070;50.922;5.430;2022-09-28T15:34:28;4.07;;;1.48;;
36001;SDS011;22070;50.922;5.430;2022-09-28T15:37:12;4.68;;;1.20;;
36001;SDS011;22070;50.922;5.430;2022-09-28T15:39:40;4.15;;;1.60;;
36001;SDS011;22070;50.922;5.430;2022-09-28T15:42:08;2.90;;;1.60;;
36001;SDS011;22070;50.922;5.430;2022-09-28T15:44:34;7.33;;;4.13;;
36001;SDS011;22070;50.922;5.430;2022-09-28T15:47:11;5.43;;;2.55;;
36001;SDS011;22070;50.922;5.430;2022-09-28T15:49:40;3.17;;;1.33;;
36001;SDS011;22070;50.922;5.430;2022-09-28T15:54:54;6.55;;;1.83;;
36001;SDS011;22070;50.922;5.430;2022-09-28T15:57:37;3.05;;;1.60;;
36001;SDS011;22070;50.922;5.430;2022-09-28T16:00:05;3.85;;;1.20;;
36001;SDS011;22070;50.922;5.430;2022-09-28T16:03:10;4.68;;;1.45;;
36001;SDS011;22070;50.922;5.430;2022-09-28T16:05:49;3.22;;;1.17;;
36001;SDS011;22070;50.922;5.430;2022-09-28T16:08:22;2.55;;;1.00;;
36001;SDS011;22070;50.922;5.430;2022-09-28T16:14:05;5.65;;;1.70;;
36001;SDS011;22070;50.922;5.430;2022-09-28T16:16:48;2.50;;;1.33;;
36001;SDS011;22070;50.922;5.430;2022-09-28T16:21:59;3.75;;;1.20;;
36001;SDS011;22070;50.922;5.430;2022-09-28T16:24:33;3.45;;;1.58;;
36001;SDS011;22070;50.922;5.430;2022-09-28T16:27:01;4.10;;;1.75;;
36001;SDS011;22070;50.922;5.430;2022-09-28T16:29:34;3.05;;;1.50;;
36001;SDS011;22070;50.922;5.430;2022-09-28T16:37:35;4.05;;;1.73;;
36001;SDS011;22070;50.922;5.430;2022-09-28T16:40:02;2.70;;;1.65;;
36001;SDS011;22070;50.922;5.430;2022-09-28T16:42:28;3.45;;;1.40;;
36001;SDS011;22070;50.922;5.430;2022-09-28T16:44:54;3.55;;;1.38;;
36001;SDS011;22070;50.922;5.430;2022-09-28T16:47:21;2.42;;;1.70;;
36001;SDS011;22070;50.922;5.430;2022-09-28T16:49:47;3.45;;;1.90;;
36001;SDS011;22070;50.922;5.430;2022-09-28T16:52:13;14.63;;;1.80;;
36001;SDS011;22070;50.922;5.430;2022-09-28T16:54:59;5.20;;;2.00;;
36001;SDS011;22070;50.922;5.430;2022-09-28T16:57:40;6.10;;;2.60;;
36001;SDS011;22070;50.922;5.430;2022-09-28T17:00:16;2.28;;;1.40;;
36001;SDS011;22070;50.922;5.430;2022-09-28T17:02:47;1.50;;;1.27;;
36001;SDS011;22070;50.922;5.430;2022-09-28T17:05:16;1.98;;;1.20;;
36001;SDS011;22070;50.922;5.430;2022-09-28T17:07:46;6.55;;;1.80;;
36001;SDS011;22070;50.922;5.430;2022-09-28T17:10:14;2.00;;;1.30;;
36001;SDS011;22070;50.922;5.430;2022-09-28T17:12:43;6.70;;;1.55;;
36001;SDS011;22070;50.922;5.430;2022-09-28T17:15:09;2.57;;;1.23;;
36001;SDS011;22070;50.922;5.430;2022-09-28T17:17:35;4.07;;;1.52;;
36001;SDS011;22070;50.922;5.430;2022-09-28T17:22:39;5.38;;;1.80;;
36001;SDS011;22070;50.922;5.430;2022-09-28T17:25:05;4.55;;;2.40;;
36001;SDS011;22070;50.922;5.430;2022-09-28T17:27:31;3.47;;;1.98;;
36001;SDS011;22070;50.922;5.430;2022-09-28T17:29:58;5.85;;;2.30;;
36001;SDS011;22070;50.922;5.430;2022-09-28T17:32:25;3.97;;;2.17;;
36001;SDS011;22070;50.922;5.430;2022-09-28T17:34:51;3.83;;;2.47;;
36001;SDS011;22070;50.922;5.430;2022-09-28T17:37:16;3.50;;;2.05;;
36001;SDS011;22070;50.922;5.430;2022-09-28T17:39:42;2.70;;;1.65;;
36001;SDS011;22070;50.922;5.430;2022-09-28T17:42:08;2.22;;;1.67;;
36001;SDS011;22070;50.922;5.430;2022-09-28T17:44:33;3.08;;;1.40;;
36001;SDS011;22070;50.922;5.430;2022-09-28T17:46:59;1.80;;;1.35;;
36001;SDS011;22070;50.922;5.430;2022-09-28T17:49:26;4.47;;;1.77;;
36001;SDS011;22070;50.922;5.430;2022-09-28T17:51:51;4.72;;;2.20;;
36001;SDS011;22070;50.922;5.430;2022-09-28T17:54:18;4.35;;;2.53;;
36001;SDS011;22070;50.922;5.430;2022-09-28T17:56:44;7.50;;;3.38;;
36001;SDS011;22070;50.922;5.430;2022-09-28T17:59:12;6.53;;;3.10;;
36001;SDS011;22070;50.922;5.430;2022-09-28T18:01:40;7.05;;;3.10;;
36001;SDS011;22070;50.922;5.430;2022-09-28T18:04:07;5.43;;;3.10;;
36001;SDS011;22070;50.922;5.430;2022-09-28T18:06:35;6.57;;;2.83;;
36001;SDS011;22070;50.922;5.430;2022-09-28T18:09:05;9.98;;;3.22;;
36001;SDS011;22070;50.922;5.430;2022-09-28T18:11:32;3.65;;;2.22;;
36001;SDS011;22070;50.922;5.430;2022-09-28T18:13:58;4.15;;;2.00;;
36001;SDS011;22070;50.922;5.430;2022-09-28T18:16:24;6.35;;;2.00;;
36001;SDS011;22070;50.922;5.430;2022-09-28T18:18:51;3.97;;;1.63;;
36001;SDS011;22070;50.922;5.430;2022-09-28T18:21:17;2.10;;;1.30;;
36001;SDS011;22070;50.922;5.430;2022-09-28T18:23:43;3.40;;;2.15;;
36001;SDS011;22070;50.922;5.430;2022-09-28T18:26:10;5.55;;;3.05;;
36001;SDS011;22070;50.922;5.430;2022-09-28T18:28:37;3.35;;;2.67;;
36001;SDS011;22070;50.922;5.430;2022-09-28T18:31:09;4.97;;;2.70;;
36001;SDS011;22070;50.922;5.430;2022-09-28T18:33:37;2.97;;;2.75;;
36001;SDS011;22070;50.922;5.430;2022-09-28T18:36:03;4.82;;;3.53;;
36001;SDS011;22070;50.922;5.430;2022-09-28T18:40:56;4.80;;;2.63;;
36001;SDS011;22070;50.922;5.430;2022-09-28T18:43:21;3.05;;;2.67;;
36001;SDS011;22070;50.922;5.430;2022-09-28T18:45:47;5.40;;;2.72;;
36001;SDS011;22070;50.922;5.430;2022-09-28T18:48:13;3.70;;;2.70;;
36001;SDS011;22070;50.922;5.430;2022-09-28T18:50:41;3.88;;;2.95;;
36001;SDS011;22070;50.922;5.430;2022-09-28T18:53:07;5.45;;;3.45;;
36001;SDS011;22070;50.922;5.430;2022-09-28T18:55:40;5.60;;;3.35;;
36001;SDS011;22070;50.922;5.430;2022-09-28T18:58:07;8.48;;;3.65;;
36001;SDS011;22070;50.922;5.430;2022-09-28T19:00:35;10.65;;;3.95;;
36001;SDS011;22070;50.922;5.430;2022-09-28T19:03:03;5.72;;;3.70;;
36001;SDS011;22070;50.922;5.430;2022-09-28T19:05:29;5.93;;;3.87;;